sensor_id;sensor_type;location;lat;lon;timestamp;pressure;altitude;pressure_sealevel;temperature;humidity
35989;BME280;22064;42.672;23.282;2023-02-28T00:00:46;95098.00;;;6.60;100.00
35989;BME280;22064;42.672;23.282;2023-02-28T00:03:12;95092.66;;;6.55;100.00
35989;BME280;22064;42.672;23.282;2023-02-28T00:05:38;95102.81;;;6.50;100.00
35989;BME280;22064;42.672;23.282;2023-02-28T00:08:04;95094.53;;;6.35;100.00
35989;BME280;22064;42.672;23.282;2023-02-28T00:10:31;95099.72;;;6.28;100.00
35989;BME280;22064;42.672;23.282;2023-02-28T00:13:02;95099.28;;;6.38;100.00
35989;BME280;22064;42.672;23.282;2023-02-28T00:15:29;95094.94;;;6.32;100.00
35989;BME280;22064;42.672;23.282;2023-02-28T00:17:55;95106.25;;;6.37;100.00
35989;BME280;22064;42.672;23.282;2023-02-28T00:20:21;95114.63;;;6.39;100.00
35989;BME280;22064;42.672;23.282;2023-02-28T00:22:49;95110.03;;;6.35;100.00
35989;BME280;22064;42.672;23.282;2023-02-28T00:25:18;95120.78;;;6.45;100.00
35989;BME280;22064;42.672;23.282;2023-02-28T00:27:45;95120.78;;;6.45;100.00
35989;BME280;22064;42.672;23.282;2023-02-28T00:30:16;95120.38;;;6.41;100.00
35989;BME280;22064;42.672;23.282;2023-02-28T00:32:42;95113.41;;;6.48;100.00
35989;BME280;22064;42.672;23.282;2023-02-28T00:35:09;95117.94;;;6.53;100.00
35989;BME280;22064;42.672;23.282;2023-02-28T00:37:35;95120.38;;;6.48;100.00
35989;BME280;22064;42.672;23.282;2023-02-28T00:40:02;95113.94;;;6.57;100.00
35989;BME280;22064;42.672;23.282;2023-02-28T00:42:30;95121.09;;;6.62;100.00
35989;BME280;22064;42.672;23.282;2023-02-28T00:44:56;95115.72;;;6.63;100.00
35989;BME280;22064;42.672;23.282;2023-02-28T00:47:22;95111.34;;;6.57;100.00
35989;BME280;22064;42.672;23.282;2023-02-28T00:49:47;95104.25;;;6.46;100.00
35989;BME280;22064;42.672;23.282;2023-02-28T00:52:13;95108.81;;;6.44;100.00
35989;BME280;22064;42.672;23.282;2023-02-28T00:54:39;95102.41;;;6.60;100.00
35989;BME280;22064;42.672;23.282;2023-02-28T00:57:06;95104.66;;;6.43;100.00
35989;BME280;22064;42.672;23.282;2023-02-28T00:59:32;95115.22;;;6.35;100.00
35989;BME280;22064;42.672;23.282;2023-02-28T01:01:58;95081.28;;;5.78;100.00
35989;BME280;22064;42.672;23.282;2023-02-28T01:04:24;95117.88;;;5.62;100.00
35989;BME280;22064;42.672;23.282;2023-02-28T01:06:50;95103.97;;;5.56;100.00
35989;BME280;22064;42.672;23.282;2023-02-28T01:09:16;95102.75;;;5.72;100.00
35989;BME280;22064;42.672;23.282;2023-02-28T01:11:42;95107.16;;;5.71;100.00
35989;BME280;22064;42.672;23.282;2023-02-28T01:14:14;95102.38;;;5.62;100.00
35989;BME280;22064;42.672;23.282;2023-02-28T01:16:40;95105.56;;;5.70;100.00
35989;BME280;22064;42.672;23.282;2023-02-28T01:19:06;95100.00;;;5.73;100.00
35989;BME280;22064;42.672;23.282;2023-02-28T01:21:32;95102.97;;;5.37;100.00
35989;BME280;22064;42.672;23.282;2023-02-28T01:23:58;95098.38;;;5.32;100.00
35989;BME280;22064;42.672;23.282;2023-02-28T01:26:24;95114.28;;;5.36;100.00
35989;BME280;22064;42.672;23.282;2023-02-28T01:28:51;95105.53;;;5.50;100.00
35989;BME280;22064;42.672;23.282;2023-02-28T01:31:19;95108.28;;;5.09;100.00
35989;BME280;22064;42.672;23.282;2023-02-28T01:33:45;95096.06;;;4.63;100.00
35989;BME280;22064;42.672;23.282;2023-02-28T01:36:14;95114.69;;;4.52;100.00
35989;BME280;22064;42.672;23.282;2023-02-28T01:38:41;95110.84;;;4.41;100.00
35989;BME280;22064;42.672;23.282;2023-02-28T01:41:08;95110.56;;;4.23;100.00
35989;BME280;22064;42.672;23.282;2023-02-28T01:46:09;95113.88;;;4.16;100.00
35989;BME280;22064;42.672;23.282;2023-02-28T01:48:40;95123.41;;;4.16;100.00
35989;BME280;22064;42.672;23.282;2023-02-28T01:54:02;95117.94;;;4.32;100.00
35989;BME280;22064;42.672;23.282;2023-02-28T01:56:33;95124.22;;;4.23;100.00
35989;BME280;22064;42.672;23.282;2023-02-28T01:59:01;95108.88;;;4.43;100.00
35989;BME280;22064;42.672;23.282;2023-02-28T02:01:28;95130.63;;;4.27;100.00
35989;BME280;22064;42.672;23.282;2023-02-28T02:04:01;95113.25;;;4.43;100.00
35989;BME280;22064;42.672;23.282;2023-02-28T02:06:40;95114.06;;;4.50;100.00
35989;BME280;22064;42.672;23.282;2023-02-28T02:09:10;95112.88;;;4.46;100.00
35989;BME280;22064;42.672;23.282;2023-02-28T02:11:37;95110.66;;;4.43;100.00
35989;BME280;22064;42.672;23.282;2023-02-28T02:35:24;95113.94;;;4.71;100.00
35989;BME280;22064;42.672;23.282;2023-02-28T02:37:59;95109.94;;;4.62;100.00
35989;BME280;22064;42.672;23.282;2023-02-28T02:40:35;95108.13;;;4.56;100.00
35989;BME280;22064;42.672;23.282;2023-02-28T02:46:04;95116.44;;;4.51;100.00
35989;BME280;22064;42.672;23.282;2023-02-28T02:48:34;95123.00;;;4.54;100.00
35989;BME280;22064;42.672;23.282;2023-02-28T02:51:07;95129.88;;;4.40;100.00
35989;BME280;22064;42.672;23.282;2023-02-28T02:53:48;95109.66;;;4.44;100.00
35989;BME280;22064;42.672;23.282;2023-02-28T02:56:18;95119.25;;;4.63;100.00
35989;BME280;22064;42.672;23.282;2023-02-28T02:58:47;95122.94;;;4.40;100.00
35989;BME280;22064;42.672;23.282;2023-02-28T03:01:21;95125.09;;;4.30;100.00
35989;BME280;22064;42.672;23.282;2023-02-28T03:03:57;95126.69;;;4.38;100.00
35989;BME280;22064;42.672;23.282;2023-02-28T03:06:25;95128.91;;;4.48;100.00
35989;BME280;22064;42.672;23.282;2023-02-28T03:08:53;95133.66;;;4.44;100.00
35989;BME280;22064;42.672;23.282;2023-02-28T03:11:21;95129.72;;;4.48;100.00
35989;BME280;22064;42.672;23.282;2023-02-28T03:24:49;95153.75;;;5.10;100.00
35989;BME280;22064;42.672;23.282;2023-02-28T03:27:30;95155.63;;;5.43;100.00
35989;BME280;22064;42.672;23.282;2023-02-28T03:30:09;95151.25;;;5.37;100.00
35989;BME280;22064;42.672;23.282;2023-02-28T03:32:40;95151.63;;;5.47;100.00
35989;BME280;22064;42.672;23.282;2023-02-28T03:35:17;95157.63;;;5.67;100.00
35989;BME280;22064;42.672;23.282;2023-02-28T03:37:51;95156.03;;;5.86;100.00
35989;BME280;22064;42.672;23.282;2023-02-28T03:40:22;95165.38;;;5.74;100.00
35989;BME280;22064;42.672;23.282;2023-02-28T03:42:51;95167.53;;;5.57;100.00
35989;BME280;22064;42.672;23.282;2023-02-28T03:45:23;95165.16;;;5.49;100.00
35989;BME280;22064;42.672;23.282;2023-02-28T03:47:53;95168.53;;;5.56;100.00
35989;BME280;22064;42.672;23.282;2023-02-28T03:50:32;95171.13;;;5.69;100.00
35989;BME280;22064;42.672;23.282;2023-02-28T03:53:04;95171.13;;;5.56;100.00
35989;BME280;22064;42.672;23.282;2023-02-28T03:55:42;95175.69;;;5.47;100.00
35989;BME280;22064;42.672;23.282;2023-02-28T03:58:42;95175.31;;;5.70;100.00
35989;BME280;22064;42.672;23.282;2023-02-28T04:01:19;95169.34;;;5.63;100.00
35989;BME280;22064;42.672;23.282;2023-02-28T04:03:47;95170.72;;;5.72;100.00
35989;BME280;22064;42.672;23.282;2023-02-28T04:06:17;95179.09;;;5.61;100.00
35989;BME280;22064;42.672;23.282;2023-02-28T04:08:44;95175.28;;;5.64;100.00
35989;BME280;22064;42.672;23.282;2023-02-28T04:11:22;95170.34;;;5.62;100.00
35989;BME280;22064;42.672;23.282;2023-02-28T04:13:48;95168.75;;;5.61;100.00
35989;BME280;22064;42.672;23.282;2023-02-28T04:16:14;95171.13;;;5.69;100.00
35989;BME280;22064;42.672;23.282;2023-02-28T04:18:41;95160.41;;;5.59;100.00
35989;BME280;22064;42.672;23.282;2023-02-28T04:21:09;95171.91;;;5.63;100.00
35989;BME280;22064;42.672;23.282;2023-02-28T04:23:35;95168.75;;;5.74;100.00
35989;BME280;22064;42.672;23.282;2023-02-28T04:26:01;95170.72;;;5.79;100.00
35989;BME280;22064;42.672;23.282;2023-02-28T04:28:26;95152.47;;;5.74;100.00
35989;BME280;22064;42.672;23.282;2023-02-28T04:30:57;95164.41;;;5.95;100.00
35989;BME280;22064;42.672;23.282;2023-02-28T04:33:24;95163.59;;;5.88;100.00
35989;BME280;22064;42.672;23.282;2023-02-28T04:36:05;95169.56;;;5.68;100.00
35989;BME280;22064;42.672;23.282;2023-02-28T04:38:36;95176.28;;;5.69;100.00
35989;BME280;22064;42.672;23.282;2023-02-28T04:41:02;95175.50;;;5.75;100.00
35989;BME280;22064;42.672;23.282;2023-02-28T04:43:29;95177.91;;;5.77;100.00
35989;BME280;22064;42.672;23.282;2023-02-28T04:45:56;95179.66;;;5.70;100.00
35989;BME280;22064;42.672;23.282;2023-02-28T04:48:27;95187.84;;;5.73;100.00
35989;BME280;22064;42.672;23.282;2023-02-28T04:50:54;95186.03;;;5.61;100.00
35989;BME280;22064;42.672;23.282;2023-02-28T04:53:20;95190.22;;;5.62;100.00
35989;BME280;22064;42.672;23.282;2023-02-28T04:55:46;95199.94;;;5.66;100.00
35989;BME280;22064;42.672;23.282;2023-02-28T04:58:13;95194.97;;;5.58;100.00
35989;BME280;22064;42.672;23.282;2023-02-28T05:00:39;95202.34;;;5.61;100.00
35989;BME280;22064;42.672;23.282;2023-02-28T05:03:05;95187.41;;;5.43;100.00
35989;BME280;22064;42.672;23.282;2023-02-28T05:05:31;95204.09;;;5.47;100.00
35989;BME280;22064;42.672;23.282;2023-02-28T05:07:57;95204.50;;;5.51;100.00
35989;BME280;22064;42.672;23.282;2023-02-28T05:10:23;95195.38;;;5.55;100.00
35989;BME280;22064;42.672;23.282;2023-02-28T05:12:49;95204.09;;;5.54;100.00
35989;BME280;22064;42.672;23.282;2023-02-28T05:15:16;95202.53;;;5.60;100.00
35989;BME280;22064;42.672;23.282;2023-02-28T05:17:42;95201.34;;;5.62;100.00
35989;BME280;22064;42.672;23.282;2023-02-28T05:20:09;95175.09;;;5.52;100.00
35989;BME280;22064;42.672;23.282;2023-02-28T05:22:39;95198.75;;;5.62;100.00
35989;BME280;22064;42.672;23.282;2023-02-28T05:25:08;95208.47;;;5.67;100.00
35989;BME280;22064;42.672;23.282;2023-02-28T05:27:35;95206.13;;;5.65;100.00
35989;BME280;22064;42.672;23.282;2023-02-28T05:30:01;95215.66;;;5.65;100.00
35989;BME280;22064;42.672;23.282;2023-02-28T05:32:29;95218.25;;;5.71;100.00
35989;BME280;22064;42.672;23.282;2023-02-28T05:34:55;95208.09;;;5.70;100.00
35989;BME280;22064;42.672;23.282;2023-02-28T05:37:21;95224.44;;;5.84;100.00
35989;BME280;22064;42.672;23.282;2023-02-28T05:39:47;95220.63;;;5.73;100.00
35989;BME280;22064;42.672;23.282;2023-02-28T05:42:13;95226.78;;;5.78;100.00
35989;BME280;22064;42.672;23.282;2023-02-28T05:44:39;95230.59;;;5.89;100.00
35989;BME280;22064;42.672;23.282;2023-02-28T05:47:05;95227.25;;;6.02;100.00
35989;BME280;22064;42.672;23.282;2023-02-28T05:49:31;95206.56;;;6.02;100.00
35989;BME280;22064;42.672;23.282;2023-02-28T05:51:57;95227.84;;;6.31;100.00
35989;BME280;22064;42.672;23.282;2023-02-28T05:54:22;95234.78;;;6.37;100.00
35989;BME280;22064;42.672;23.282;2023-02-28T05:56:48;95232.41;;;6.42;100.00
35989;BME280;22064;42.672;23.282;2023-02-28T05:59:14;95234.97;;;6.55;100.00
35989;BME280;22064;42.672;23.282;2023-02-28T06:01:42;95237.97;;;6.52;100.00
35989;BME280;22064;42.672;23.282;2023-02-28T06:04:15;95226.03;;;6.58;100.00
35989;BME280;22064;42.672;23.282;2023-02-28T06:06:44;95231.38;;;6.50;100.00
35989;BME280;22064;42.672;23.282;2023-02-28T06:09:10;95228.44;;;6.33;100.00
35989;BME280;22064;42.672;23.282;2023-02-28T06:11:36;95231.19;;;6.38;100.00
35989;BME280;22064;42.672;23.282;2023-02-28T06:14:03;95220.25;;;6.29;100.00
35989;BME280;22064;42.672;23.282;2023-02-28T06:16:30;95235.53;;;6.57;100.00
35989;BME280;22064;42.672;23.282;2023-02-28T06:18:58;95227.94;;;6.76;100.00
35989;BME280;22064;42.672;23.282;2023-02-28T06:21:24;95224.81;;;6.67;100.00
35989;BME280;22064;42.672;23.282;2023-02-28T06:23:50;95236.50;;;6.83;100.00
35989;BME280;22064;42.672;23.282;2023-02-28T06:26:16;95219.75;;;6.92;100.00
35989;BME280;22064;42.672;23.282;2023-02-28T06:28:42;95231.63;;;7.13;100.00
35989;BME280;22064;42.672;23.282;2023-02-28T06:31:10;95236.66;;;7.01;100.00
35989;BME280;22064;42.672;23.282;2023-02-28T06:33:37;95234.06;;;7.01;100.00
35989;BME280;22064;42.672;23.282;2023-02-28T06:36:04;95244.34;;;7.21;100.00
35989;BME280;22064;42.672;23.282;2023-02-28T06:38:31;95224.81;;;7.18;100.00
35989;BME280;22064;42.672;23.282;2023-02-28T06:40:59;95253.66;;;7.29;100.00
35989;BME280;22064;42.672;23.282;2023-02-28T06:43:29;95260.25;;;6.46;100.00
35989;BME280;22064;42.672;23.282;2023-02-28T06:45:58;95257.47;;;6.21;100.00
35989;BME280;22064;42.672;23.282;2023-02-28T06:48:25;95258.81;;;5.91;100.00
35989;BME280;22064;42.672;23.282;2023-02-28T06:50:52;95263.41;;;5.89;100.00
35989;BME280;22064;42.672;23.282;2023-02-28T06:53:18;95258.97;;;5.69;100.00
35989;BME280;22064;42.672;23.282;2023-02-28T06:55:44;95259.34;;;5.60;100.00
35989;BME280;22064;42.672;23.282;2023-02-28T06:58:10;95263.34;;;5.62;100.00
35989;BME280;22064;42.672;23.282;2023-02-28T07:00:45;95274.47;;;5.56;100.00
35989;BME280;22064;42.672;23.282;2023-02-28T07:03:12;95246.00;;;5.43;100.00
35989;BME280;22064;42.672;23.282;2023-02-28T07:05:39;95265.53;;;5.65;100.00
35989;BME280;22064;42.672;23.282;2023-02-28T07:08:05;95267.91;;;5.60;100.00
35989;BME280;22064;42.672;23.282;2023-02-28T07:10:32;95257.41;;;5.82;100.00
35989;BME280;22064;42.672;23.282;2023-02-28T07:12:59;95270.56;;;5.87;100.00
35989;BME280;22064;42.672;23.282;2023-02-28T07:15:25;95270.69;;;5.65;100.00
35989;BME280;22064;42.672;23.282;2023-02-28T07:17:51;95259.56;;;5.58;100.00
35989;BME280;22064;42.672;23.282;2023-02-28T07:20:17;95258.56;;;5.66;100.00
35989;BME280;22064;42.672;23.282;2023-02-28T07:22:43;95268.91;;;5.66;100.00
35989;BME280;22064;42.672;23.282;2023-02-28T07:25:09;95270.47;;;5.53;100.00
35989;BME280;22064;42.672;23.282;2023-02-28T07:27:35;95269.69;;;5.53;100.00
35989;BME280;22064;42.672;23.282;2023-02-28T07:30:02;95274.03;;;5.46;100.00
35989;BME280;22064;42.672;23.282;2023-02-28T07:32:29;95266.06;;;5.41;100.00
35989;BME280;22064;42.672;23.282;2023-02-28T07:34:55;95267.66;;;5.42;100.00
35989;BME280;22064;42.672;23.282;2023-02-28T07:37:22;95265.50;;;5.45;100.00
35989;BME280;22064;42.672;23.282;2023-02-28T07:39:47;95267.66;;;5.42;100.00
35989;BME280;22064;42.672;23.282;2023-02-28T07:42:13;95273.44;;;5.50;100.00
35989;BME280;22064;42.672;23.282;2023-02-28T07:44:39;95264.88;;;5.43;100.00
35989;BME280;22064;42.672;23.282;2023-02-28T07:47:09;95276.81;;;5.51;100.00
35989;BME280;22064;42.672;23.282;2023-02-28T07:49:36;95258.34;;;5.54;100.00
35989;BME280;22064;42.672;23.282;2023-02-28T07:52:06;95255.19;;;5.52;100.00
35989;BME280;22064;42.672;23.282;2023-02-28T07:54:33;95262.09;;;5.45;100.00
35989;BME280;22064;42.672;23.282;2023-02-28T07:56:58;95264.09;;;5.49;100.00
35989;BME280;22064;42.672;23.282;2023-02-28T07:59:24;95271.25;;;5.54;100.00
35989;BME280;22064;42.672;23.282;2023-02-28T08:01:50;95261.75;;;5.61;100.00
35989;BME280;22064;42.672;23.282;2023-02-28T08:04:17;95264.59;;;5.79;100.00
35989;BME280;22064;42.672;23.282;2023-02-28T08:06:43;95266.81;;;5.96;100.00
35989;BME280;22064;42.672;23.282;2023-02-28T08:09:10;95265.41;;;6.00;100.00
35989;BME280;22064;42.672;23.282;2023-02-28T08:11:36;95264.59;;;5.86;100.00
35989;BME280;22064;42.672;23.282;2023-02-28T08:14:02;95253.84;;;5.83;100.00
35989;BME280;22064;42.672;23.282;2023-02-28T08:16:28;95261.41;;;5.91;100.00
35989;BME280;22064;42.672;23.282;2023-02-28T08:18:53;95256.22;;;5.84;100.00
35989;BME280;22064;42.672;23.282;2023-02-28T08:21:20;95270.34;;;5.88;100.00
35989;BME280;22064;42.672;23.282;2023-02-28T08:23:48;95260.41;;;5.85;100.00
35989;BME280;22064;42.672;23.282;2023-02-28T08:26:15;95273.31;;;5.92;100.00
35989;BME280;22064;42.672;23.282;2023-02-28T08:28:41;95261.00;;;5.81;100.00
35989;BME280;22064;42.672;23.282;2023-02-28T08:31:11;95273.38;;;5.98;100.00
35989;BME280;22064;42.672;23.282;2023-02-28T08:33:39;95271.34;;;5.87;100.00
35989;BME280;22064;42.672;23.282;2023-02-28T08:36:07;95273.19;;;6.00;100.00
35989;BME280;22064;42.672;23.282;2023-02-28T08:38:33;95264.59;;;5.86;100.00
35989;BME280;22064;42.672;23.282;2023-02-28T08:41:01;95273.78;;;5.95;100.00
35989;BME280;22064;42.672;23.282;2023-02-28T08:43:28;95279.50;;;5.91;100.00
35989;BME280;22064;42.672;23.282;2023-02-28T08:45:55;95282.34;;;6.16;100.00
35989;BME280;22064;42.672;23.282;2023-02-28T08:48:25;95269.00;;;6.32;100.00
35989;BME280;22064;42.672;23.282;2023-02-28T08:50:59;95267.44;;;6.18;100.00
35989;BME280;22064;42.672;23.282;2023-02-28T08:53:25;95270.81;;;6.25;100.00
35989;BME280;22064;42.672;23.282;2023-02-28T08:56:01;95273.38;;;6.18;100.00
35989;BME280;22064;42.672;23.282;2023-02-28T08:58:28;95279.75;;;6.16;100.00
35989;BME280;22064;42.672;23.282;2023-02-28T09:00:54;95270.63;;;6.33;100.00
35989;BME280;22064;42.672;23.282;2023-02-28T09:03:21;95279.75;;;6.22;100.00
35989;BME280;22064;42.672;23.282;2023-02-28T09:05:59;95283.34;;;6.15;100.00
35989;BME280;22064;42.672;23.282;2023-02-28T09:08:27;95274.56;;;6.22;100.00
35989;BME280;22064;42.672;23.282;2023-02-28T09:10:54;95270.41;;;6.28;100.00
35989;BME280;22064;42.672;23.282;2023-02-28T09:13:22;95276.78;;;6.39;100.00
35989;BME280;22064;42.672;23.282;2023-02-28T09:15:48;95269.03;;;6.39;100.00
35989;BME280;22064;42.672;23.282;2023-02-28T09:18:14;95275.97;;;6.25;100.00
35989;BME280;22064;42.672;23.282;2023-02-28T09:20:41;95273.78;;;6.22;100.00
35989;BME280;22064;42.672;23.282;2023-02-28T09:23:09;95271.41;;;6.27;100.00
35989;BME280;22064;42.672;23.282;2023-02-28T09:25:35;95274.56;;;6.29;100.00
35989;BME280;22064;42.672;23.282;2023-02-28T09:28:01;95267.25;;;6.33;100.00
35989;BME280;22064;42.672;23.282;2023-02-28T09:30:28;95267.00;;;6.47;100.00
35989;BME280;22064;42.672;23.282;2023-02-28T09:32:54;95260.63;;;6.63;100.00
35989;BME280;22064;42.672;23.282;2023-02-28T09:35:21;95269.19;;;6.57;100.00
35989;BME280;22064;42.672;23.282;2023-02-28T09:37:51;95269.00;;;6.59;100.00
35989;BME280;22064;42.672;23.282;2023-02-28T09:40:18;95265.56;;;6.85;100.00
35989;BME280;22064;42.672;23.282;2023-02-28T09:42:49;95265.97;;;6.82;100.00
35989;BME280;22064;42.672;23.282;2023-02-28T09:45:24;95239.66;;;6.85;100.00
35989;BME280;22064;42.672;23.282;2023-02-28T09:47:52;95244.41;;;6.94;100.00
35989;BME280;22064;42.672;23.282;2023-02-28T09:52:52;95255.31;;;7.10;100.00
35989;BME280;22064;42.672;23.282;2023-02-28T09:55:27;95253.53;;;7.17;100.00
35989;BME280;22064;42.672;23.282;2023-02-28T09:57:54;95235.97;;;7.19;100.00
35989;BME280;22064;42.672;23.282;2023-02-28T10:05:44;95240.81;;;7.85;100.00
35989;BME280;22064;42.672;23.282;2023-02-28T10:08:36;95240.00;;;8.17;100.00
35989;BME280;22064;42.672;23.282;2023-02-28T10:11:09;95229.78;;;8.22;100.00
35989;BME280;22064;42.672;23.282;2023-02-28T10:14:02;95235.84;;;8.09;100.00
35989;BME280;22064;42.672;23.282;2023-02-28T10:16:43;95231.03;;;8.38;100.00
35989;BME280;22064;42.672;23.282;2023-02-28T10:19:17;95234.19;;;8.46;100.00
35989;BME280;22064;42.672;23.282;2023-02-28T10:21:57;95224.50;;;8.60;100.00
35989;BME280;22064;42.672;23.282;2023-02-28T10:27:00;95224.25;;;9.35;100.00
35989;BME280;22064;42.672;23.282;2023-02-28T10:29:28;95226.50;;;9.62;100.00
35989;BME280;22064;42.672;23.282;2023-02-28T10:31:58;95223.63;;;9.82;100.00
35989;BME280;22064;42.672;23.282;2023-02-28T10:34:26;95204.13;;;9.61;100.00
35989;BME280;22064;42.672;23.282;2023-02-28T10:36:53;95208.22;;;9.80;100.00
35989;BME280;22064;42.672;23.282;2023-02-28T10:39:36;95210.47;;;10.30;100.00
35989;BME280;22064;42.672;23.282;2023-02-28T10:42:25;95198.72;;;10.63;100.00
35989;BME280;22064;42.672;23.282;2023-02-28T10:45:14;95187.94;;;10.83;100.00
35989;BME280;22064;42.672;23.282;2023-02-28T10:48:04;95179.44;;;11.28;100.00
35989;BME280;22064;42.672;23.282;2023-02-28T10:53:16;95170.81;;;11.85;100.00
35989;BME280;22064;42.672;23.282;2023-02-28T10:58:50;95175.06;;;11.91;100.00
35989;BME280;22064;42.672;23.282;2023-02-28T11:01:19;95166.63;;;12.00;100.00
35989;BME280;22064;42.672;23.282;2023-02-28T11:03:46;95163.19;;;12.17;100.00
35989;BME280;22064;42.672;23.282;2023-02-28T11:06:21;95152.28;;;12.20;100.00
35989;BME280;22064;42.672;23.282;2023-02-28T11:08:56;95151.31;;;12.26;100.00
35989;BME280;22064;42.672;23.282;2023-02-28T11:11:25;95152.28;;;12.37;100.00
35989;BME280;22064;42.672;23.282;2023-02-28T11:13:53;95146.72;;;12.50;100.00
35989;BME280;22064;42.672;23.282;2023-02-28T11:16:20;95128.69;;;12.32;100.00
35989;BME280;22064;42.672;23.282;2023-02-28T11:18:52;95157.63;;;12.47;100.00
35989;BME280;22064;42.672;23.282;2023-02-28T11:21:27;95145.75;;;12.56;100.00
35989;BME280;22064;42.672;23.282;2023-02-28T11:24:02;95141.69;;;12.65;100.00
35989;BME280;22064;42.672;23.282;2023-02-28T11:29:32;95143.00;;;12.29;100.00
35989;BME280;22064;42.672;23.282;2023-02-28T11:32:21;95145.06;;;12.44;100.00
35989;BME280;22064;42.672;23.282;2023-02-28T11:35:01;95134.81;;;12.59;100.00
35989;BME280;22064;42.672;23.282;2023-02-28T11:37:29;95123.56;;;12.37;100.00
35989;BME280;22064;42.672;23.282;2023-02-28T11:39:56;95129.00;;;12.35;100.00
35989;BME280;22064;42.672;23.282;2023-02-28T11:47:55;95132.69;;;12.56;100.00
35989;BME280;22064;42.672;23.282;2023-02-28T11:55:42;95126.13;;;12.54;100.00
35989;BME280;22064;42.672;23.282;2023-02-28T12:06:54;95121.25;;;12.40;100.00
35989;BME280;22064;42.672;23.282;2023-02-28T12:12:24;95125.25;;;12.09;100.00
35989;BME280;22064;42.672;23.282;2023-02-28T12:28:18;95125.03;;;12.33;100.00
35989;BME280;22064;42.672;23.282;2023-02-28T12:30:55;95113.34;;;12.57;100.00
35989;BME280;22064;42.672;23.282;2023-02-28T12:33:24;95121.19;;;12.57;100.00
35989;BME280;22064;42.672;23.282;2023-02-28T12:35:55;95122.91;;;12.46;100.00
35989;BME280;22064;42.672;23.282;2023-02-28T12:38:23;95121.25;;;12.40;100.00
35989;BME280;22064;42.672;23.282;2023-02-28T12:40:59;95119.69;;;12.22;100.00
35989;BME280;22064;42.672;23.282;2023-02-28T12:43:30;95122.63;;;12.09;100.00
35989;BME280;22064;42.672;23.282;2023-02-28T12:46:08;95113.28;;;12.13;100.00
35989;BME280;22064;42.672;23.282;2023-02-28T12:51:08;95108.63;;;12.54;100.00
35989;BME280;22064;42.672;23.282;2023-02-28T12:58:41;95113.69;;;12.22;100.00
35989;BME280;22064;42.672;23.282;2023-02-28T13:03:52;95098.50;;;12.19;100.00
35989;BME280;22064;42.672;23.282;2023-02-28T13:06:40;95111.69;;;12.29;100.00
35989;BME280;22064;42.672;23.282;2023-02-28T13:09:17;95106.03;;;12.15;100.00
35989;BME280;22064;42.672;23.282;2023-02-28T13:14:21;95093.63;;;12.06;100.00
35989;BME280;22064;42.672;23.282;2023-02-28T13:16:55;95109.16;;;12.17;100.00
35989;BME280;22064;42.672;23.282;2023-02-28T13:19:26;95093.94;;;12.09;100.00
35989;BME280;22064;42.672;23.282;2023-02-28T13:21:52;95105.78;;;12.17;100.00
35989;BME280;22064;42.672;23.282;2023-02-28T13:29:38;95099.72;;;11.94;100.00
35989;BME280;22064;42.672;23.282;2023-02-28T13:34:33;95094.94;;;12.25;100.00
35989;BME280;22064;42.672;23.282;2023-02-28T13:39:50;95087.75;;;12.15;100.00
35989;BME280;22064;42.672;23.282;2023-02-28T13:42:32;95082.72;;;11.92;100.00
35989;BME280;22064;42.672;23.282;2023-02-28T13:47:42;95081.97;;;11.79;100.00
35989;BME280;22064;42.672;23.282;2023-02-28T13:53:23;95072.09;;;11.98;100.00
35989;BME280;22064;42.672;23.282;2023-02-28T13:56:02;95081.28;;;11.84;100.00
35989;BME280;22064;42.672;23.282;2023-02-28T13:58:55;95075.88;;;11.74;100.00
35989;BME280;22064;42.672;23.282;2023-02-28T14:01:46;95078.50;;;11.57;100.00
35989;BME280;22064;42.672;23.282;2023-02-28T14:07:45;95077.31;;;11.48;100.00
35989;BME280;22064;42.672;23.282;2023-02-28T14:15:45;95078.72;;;11.39;100.00
35989;BME280;22064;42.672;23.282;2023-02-28T14:18:22;95073.34;;;11.28;100.00
35989;BME280;22064;42.672;23.282;2023-02-28T14:20:53;95056.09;;;11.10;100.00
35989;BME280;22064;42.672;23.282;2023-02-28T14:32:27;95074.66;;;11.14;100.00
35989;BME280;22064;42.672;23.282;2023-02-28T14:35:05;95083.69;;;10.95;100.00
35989;BME280;22064;42.672;23.282;2023-02-28T14:37:41;95069.56;;;10.91;100.00
35989;BME280;22064;42.672;23.282;2023-02-28T14:40:16;95070.66;;;10.95;100.00
35989;BME280;22064;42.672;23.282;2023-02-28T14:42:48;95069.78;;;10.89;100.00
35989;BME280;22064;42.672;23.282;2023-02-28T14:45:20;95078.19;;;10.79;100.00
35989;BME280;22064;42.672;23.282;2023-02-28T14:47:47;95069.94;;;10.71;100.00
35989;BME280;22064;42.672;23.282;2023-02-28T14:50:20;95079.94;;;10.62;100.00
35989;BME280;22064;42.672;23.282;2023-02-28T14:52:47;95077.59;;;10.49;100.00
35989;BME280;22064;42.672;23.282;2023-02-28T14:55:17;95067.78;;;10.39;100.00
35989;BME280;22064;42.672;23.282;2023-02-28T14:57:56;95076.16;;;10.29;100.00
35989;BME280;22064;42.672;23.282;2023-02-28T15:00:30;95059.63;;;10.12;100.00
35989;BME280;22064;42.672;23.282;2023-02-28T15:02:59;95072.09;;;10.10;100.00
35989;BME280;22064;42.672;23.282;2023-02-28T15:05:32;95076.97;;;10.06;100.00
35989;BME280;22064;42.672;23.282;2023-02-28T15:08:17;95063.97;;;10.06;100.00
35989;BME280;22064;42.672;23.282;2023-02-28T15:10:53;95067.75;;;10.15;100.00
35989;BME280;22064;42.672;23.282;2023-02-28T15:13:19;95057.47;;;10.09;100.00
35989;BME280;22064;42.672;23.282;2023-02-28T15:18:37;95066.88;;;9.98;100.00
35989;BME280;22064;42.672;23.282;2023-02-28T15:21:12;95044.97;;;9.82;100.00
35989;BME280;22064;42.672;23.282;2023-02-28T15:23:40;95063.16;;;9.82;100.00
35989;BME280;22064;42.672;23.282;2023-02-28T15:26:10;95075.72;;;9.85;100.00